Аэропорт
Сыктывкар (UUYY)

 UUYY / SCW
ЗЦ Санкт-Петербург
Сыктывкар (UUYY)
Сыктывкар (UUYY)
 61.64700, 50.84510  / 342 ft

 UUYY 251130Z 36007G12MPS 9999 BKN017CB 11/08 Q1016 R36/29//51 NOSIG RMK QFE753/1004
 TAF UUYY 250800Z 2509/2609 36003G10MPS 6000 BKN011 BKN015CB TEMPO 2509/2518 01005G14MPS 3100 -SHRA FEW007 BKN012CB BECMG 2518/2519 33003G08MPS TEMPO 2518/2606 3100 -SHRA BR FEW005 BKN012CB
показать схемы

Аэродром "Сыктывкар" (UUYY)

Рекомендованные сценарии:

FS2004 от Aniter

P3D/FSX от Aniter 

Схемы:

АИП

Средства связи ОВД:

UUYY_R_APP - Сивкар-Круг - 124.600

UUYY_TWR - Сивкар-Старт - 124.600

UUYY_ATIS - Сивкар-АТИС (русский, английский) - 126.600



2019 © VATRUS division (Privacy Policy)